Flight AZ721

 

  • Submitted By: Dejan Burnik
  • Departure Airport: Athens (LGAV)
  • Arrival Airport: Leonardo da Vinci (LIRF)
  • Aircraft: A320-214 (EI-IKF)
  • Flight Time: 02.36.12
  • Date Submitted: 16/09/2016
  • Route: PIKAD UL53 KRK UL995 TEA UZ803 LAT
  • Status: Accepted
Flight Details
Gross Revenue:
(159 load / € 280.00 per unit
€ 44,520.00
Fuel Cost:
(5349.67 fuel used @ 1.1 / unit)
€ 5,884.64
Flight Details

 

  • Log Data: -
  • Network: -
Additional Log Information:

 

View Log

[16:41] - FSLabs A320-X Alitalia
[16:41] - Flight AZ721 is ready to depart LGAV with a final destination of LIRF.
[16:41] - Parking Brake Applied
[16:41] - Boarding
[16:42] - Spoilers ON 17ft, hdg 303 and 0kts
[17:01] - Parking Brake Released
[17:03] - Parking Brake Applied
[17:05] - Flaps to position 1
[17:05] - Flaps to position 3
[17:06] - Parking Brake Released
[17:07] - Spoilers OFF 17ft, hdg 217 and 0kts
[17:07] - Taxiing to Runway
[17:08] - Spoilers ON 17ft, hdg 187 and 0kts
[17:09] - Spoilers OFF 17ft, hdg 208 and 0kts
[17:12] - Spoilers ON 17ft, hdg 188 and 0kts
[17:12] - Spoilers OFF 17ft, hdg 192 and 0kts
[17:12] - Spoilers ON 17ft, hdg 192 and 0kts
[17:12] - Spoilers OFF 17ft, hdg 189 and 0kts
[17:12] - Spoilers ON 17ft, hdg 187 and 0kts
[17:12] - Spoilers OFF 17ft, hdg 188 and 0kts
[17:14] - Taking Off with 159 passengers on board
[17:14] - Spoilers ON 17ft, hdg 28 and 163kts
[17:15] - Take off at 170kts, with a pitch of 7deg and 6113kgs of fuel on board
[17:15] - Wind Heading 79 | Wind Speed 7kts | Temperature 27 deg C
[17:15] - Climbing to TOC
[17:15] - Gear up at 801AGL
[17:16] - Spoilers OFF 3514ft, hdg 36 and 196kts
[17:16] - Flaps to position 1 at 3944ft and 228kts
[17:16] - Flaps to position 0 at 3950ft and 229kts
[17:16] - Spoilers ON 3976ft, hdg 41 and 217kts
[17:23] - Spoilers OFF 18221ft, hdg 285 and 252kts
[17:37] - Spoilers ON 33701ft, hdg 302 and 257kts
[17:40] - TOC reached
[17:40] - Cruise started
[18:40] - Spoilers OFF 37434ft, hdg 272 and 248kts
[18:40] - Spoilers ON 37401ft, hdg 271 and 250kts
[18:40] - Spoilers OFF 36696ft, hdg 268 and 253kts
[18:40] - Spoilers ON 36588ft, hdg 266 and 253kts
[18:40] - TOD reached
[18:40] - Descending to destination
[18:40] - Spoilers OFF 36319ft, hdg 278 and 0kts
[18:40] - Spoilers ON 36273ft, hdg 283 and 0kts
[18:40] - Spoilers OFF 36135ft, hdg 278 and 0kts
[18:40] - Spoilers ON 35961ft, hdg 281 and 0kts
[18:41] - Spoilers OFF 33819ft, hdg 263 and 288kts
[18:41] - Spoilers ON 33815ft, hdg 277 and 283kts
[18:41] - Spoilers OFF 34206ft, hdg 260 and 0kts
[18:41] - Spoilers ON 34492ft, hdg 271 and 0kts
[18:41] - Spoilers OFF 34554ft, hdg 265 and 0kts
[18:41] - Spoilers ON 34531ft, hdg 263 and 264kts
[18:54] - Spoilers OFF 12778ft, hdg 302 and 0kts
[18:54] - Spoilers ON 12835ft, hdg 297 and 0kts
[18:54] - Spoilers OFF 12874ft, hdg 305 and 0kts
[18:54] - Spoilers ON 12854ft, hdg 300 and 0kts
[18:54] - Spoilers OFF 12762ft, hdg 307 and 0kts
[18:54] - Spoilers ON 12740ft, hdg 298 and 0kts
[18:54] - Spoilers OFF 12766ft, hdg 307 and 0kts
[18:54] - Spoilers ON 12746ft, hdg 300 and 0kts
[18:54] - Spoilers OFF 12375ft, hdg 306 and 0kts
[18:54] - Spoilers ON 12359ft, hdg 305 and 0kts
[18:54] - Spoilers OFF 12306ft, hdg 304 and 230kts
[18:54] - Spoilers ON 12290ft, hdg 302 and 230kts
[18:54] - Spoilers OFF 12401ft, hdg 305 and 231kts
[18:54] - Spoilers ON 12385ft, hdg 301 and 230kts
[18:54] - Spoilers OFF 12490ft, hdg 305 and 231kts
[18:54] - Spoilers ON 12474ft, hdg 301 and 230kts
[18:55] - Spoilers OFF 12359ft, hdg 306 and 230kts
[18:55] - Spoilers ON 12214ft, hdg 301 and 230kts
[18:55] - Spoilers OFF 12172ft, hdg 305 and 0kts
[18:55] - Spoilers ON 12153ft, hdg 301 and 0kts
[18:55] - Spoilers OFF 12123ft, hdg 307 and 0kts
[18:55] - Spoilers ON 12120ft, hdg 301 and 0kts
[18:55] - Spoilers OFF 11998ft, hdg 305 and 0kts
[18:55] - Spoilers ON 11978ft, hdg 305 and 0kts
[18:58] - Spoilers OFF 8215ft, hdg 164 and 229kts
[18:58] - Spoilers ON 8222ft, hdg 157 and 229kts
[18:58] - Spoilers OFF 8258ft, hdg 140 and 228kts
[18:58] - Spoilers ON 8238ft, hdg 137 and 229kts
[18:58] - Spoilers OFF 8140ft, hdg 131 and 230kts
[18:58] - Spoilers ON 8157ft, hdg 130 and 230kts
[18:58] - Spoilers OFF 7067ft, hdg 110 and 237kts
[18:58] - Spoilers ON 6932ft, hdg 113 and 239kts
[18:58] - Spoilers OFF 6883ft, hdg 113 and 239kts
[18:58] - Spoilers ON 6880ft, hdg 112 and 240kts
[18:58] - Spoilers OFF 6867ft, hdg 112 and 241kts
[18:58] - Spoilers ON 6457ft, hdg 122 and 251kts
[18:58] - Spoilers OFF 6450ft, hdg 121 and 251kts
[18:58] - Spoilers ON 6427ft, hdg 122 and 252kts
[18:58] - Spoilers OFF 6312ft, hdg 121 and 253kts
[18:58] - Spoilers ON 6125ft, hdg 124 and 253kts
[18:58] - Spoilers OFF 6112ft, hdg 121 and 255kts
[18:59] - Spoilers ON 5272ft, hdg 124 and 254kts
[18:59] - Spoilers OFF 5354ft, hdg 125 and 255kts
[18:59] - Spoilers ON 5315ft, hdg 126 and 254kts
[18:59] - Spoilers OFF 5440ft, hdg 124 and 255kts
[18:59] - Spoilers ON 5312ft, hdg 124 and 252kts
[18:59] - Spoilers OFF 5299ft, hdg 125 and 254kts
[18:59] - Spoilers ON 5023ft, hdg 123 and 252kts
[18:59] - Spoilers OFF 5007ft, hdg 125 and 254kts
[18:59] - Landing Shortly
[18:59] - Spoilers ON 4820ft, hdg 123 and 253kts
[18:59] - Spoilers OFF 4927ft, hdg 125 and 255kts
[18:59] - Spoilers ON 5128ft, hdg 125 and 255kts
[18:59] - Spoilers OFF 5272ft, hdg 125 and 257kts
[18:59] - Spoilers ON 5216ft, hdg 127 and 256kts
[18:59] - Spoilers OFF 5312ft, hdg 125 and 258kts
[18:59] - Spoilers ON 5305ft, hdg 125 and 257kts
[18:59] - Spoilers OFF 5285ft, hdg 125 and 258kts
[18:59] - Spoilers ON 5170ft, hdg 125 and 257kts
[18:59] - Spoilers OFF 5151ft, hdg 125 and 258kts
[18:59] - Spoilers ON 5082ft, hdg 127 and 258kts
[18:59] - Spoilers OFF 5177ft, hdg 124 and 260kts
[18:59] - Spoilers ON 5161ft, hdg 120 and 261kts
[18:59] - Spoilers OFF 5138ft, hdg 123 and 264kts
[18:59] - Spoilers ON 4543ft, hdg 116 and 268kts
[18:59] - Spoilers OFF 4423ft, hdg 124 and 272kts
[19:00] - Spoilers ON 3930ft, hdg 118 and 280kts
[19:00] - Spoilers OFF 3835ft, hdg 123 and 284kts
[19:00] - Spoilers ON 3727ft, hdg 112 and 288kts
[19:00] - Spoilers OFF 3769ft, hdg 126 and 290kts
[19:00] - Spoilers ON 3720ft, hdg 116 and 292kts
[19:00] - Spoilers OFF 3740ft, hdg 127 and 295kts
[19:00] - Spoilers ON 3829ft, hdg 119 and 295kts
[19:00] - Spoilers OFF 3799ft, hdg 125 and 296kts
[19:00] - Spoilers ON 3931ft, hdg 116 and 293kts
[19:00] - Spoilers OFF 3799ft, hdg 127 and 296kts
[19:00] - Spoilers ON 3563ft, hdg 119 and 293kts
[19:00] - Spoilers OFF 3678ft, hdg 127 and 295kts
[19:00] - Spoilers ON 3570ft, hdg 114 and 286kts
[19:00] - Spoilers OFF 3573ft, hdg 129 and 290kts
[19:01] - Spoilers ON 3320ft, hdg 128 and 242kts
[19:01] - Spoilers OFF 3316ft, hdg 128 and 241kts
[19:01] - Spoilers ON 3353ft, hdg 159 and 232kts
[19:02] - Flaps to position 1 at 3734ft and 227kts
[19:03] - Flaps to position 2 at 2641ft and 191kts
[19:03] - Flaps to position 3 at 2552ft and 191kts
[19:03] - Flaps to position 4 at 2536ft and 190kts
[19:03] - Flaps to position 5 at 2526ft and 190kts
[19:03] - Flaps to position 6 at 2523ft and 190kts
[19:03] - Flaps to position 7 at 2516ft and 190kts
[19:03] - Gear down at 2257AGL
[19:03] - Spoilers OFF 2270ft, hdg 161 and 177kts
[19:03] - Spoilers ON 2267ft, hdg 162 and 172kts
[19:03] - Spoilers OFF 2264ft, hdg 162 and 173kts
[19:03] - Spoilers ON 2260ft, hdg 162 and 171kts
[19:03] - Flaps to position 8 at 2457ft and 162kts
[19:04] - Spoilers OFF 2304ft, hdg 160 and 158kts
[19:04] - Spoilers ON 2297ft, hdg 160 and 159kts
[19:04] - Spoilers OFF 2257ft, hdg 160 and 160kts
[19:04] - Spoilers ON 2250ft, hdg 160 and 160kts
[19:04] - Spoilers OFF 2237ft, hdg 161 and 160kts
[19:04] - Spoilers ON 2234ft, hdg 161 and 160kts
[19:04] - Spoilers OFF 2218ft, hdg 161 and 159kts
[19:04] - Spoilers ON 2214ft, hdg 160 and 159kts
[19:04] - Spoilers OFF 2208ft, hdg 160 and 161kts
[19:04] - Spoilers ON 2208ft, hdg 160 and 160kts
[19:04] - Spoilers OFF 2159ft, hdg 160 and 158kts
[19:04] - Spoilers ON 2159ft, hdg 160 and 159kts
[19:04] - Spoilers OFF 2090ft, hdg 160 and 160kts
[19:04] - Spoilers ON 2083ft, hdg 160 and 159kts
[19:04] - Spoilers OFF 2034ft, hdg 159 and 160kts
[19:04] - Spoilers ON 2024ft, hdg 159 and 159kts
[19:05] - Spoilers OFF 1467ft, hdg 160 and 160kts
[19:05] - Spoilers ON 1463ft, hdg 160 and 160kts
[19:05] - Spoilers OFF 1424ft, hdg 160 and 160kts
[19:05] - Spoilers ON 1421ft, hdg 160 and 159kts
[19:05] - Spoilers OFF 1410ft, hdg 160 and 160kts
[19:05] - Spoilers ON 1407ft, hdg 160 and 160kts
[19:05] - Spoilers OFF 1394ft, hdg 160 and 160kts
[19:05] - Spoilers ON 1388ft, hdg 160 and 160kts
[19:05] - Flaps to position 9 at 1381ft and 165kts
[19:05] - Spoilers OFF 1358ft, hdg 160 and 160kts
[19:05] - Spoilers ON 1063ft, hdg 161 and 142kts
[19:07] - Landed at 133 kias, at -408fpm. With 1229kgs of fuel onboard and a pitch angle of 5deg.
[19:07] - Wind Heading 155 | Wind Speed 10kts | Temperature 23 deg C
[19:07] - Taxiing to Gate
[19:09] - Spoilers OFF 13ft, hdg 68 and 19kts
[19:09] - Flaps to position 8
[19:09] - Flaps to position 7
[19:09] - Flaps to position 6
[19:09] - Flaps to position 5
[19:09] - Flaps to position 4
[19:10] - Flaps to position 3
[19:10] - Flaps to position 0
[19:14] - Spoilers ON 13ft, hdg 215 and 15kts
[19:14] - Spoilers OFF 13ft, hdg 221 and 13kts
[19:14] - Spoilers ON 13ft, hdg 221 and 13kts
[19:14] - Spoilers OFF 13ft, hdg 224 and 13kts
[19:14] - Spoilers ON 13ft, hdg 224 and 13kts
[19:15] - Spoilers OFF 13ft, hdg 255 and 5kts
[19:15] - Spoilers ON 13ft, hdg 283 and 0kts
[19:15] - Spoilers OFF 13ft, hdg 284 and 0kts
[19:15] - Spoilers ON 13ft, hdg 285 and 0kts
[19:15] - Spoilers OFF 13ft, hdg 285 and 0kts
[19:15] - Spoilers ON 13ft, hdg 285 and 0kts
[19:15] - Spoilers OFF 13ft, hdg 286 and 0kts
[19:15] - Spoilers ON 13ft, hdg 286 and 0kts
[19:15] - Spoilers OFF 13ft, hdg 286 and 0kts
[19:15] - Spoilers ON 13ft, hdg 275 and 0kts
[19:15] - Spoilers OFF 13ft, hdg 278 and 0kts
[19:15] - Spoilers ON 13ft, hdg 255 and 0kts
[19:15] - Spoilers OFF 13ft, hdg 267 and 0kts
[19:15] - Spoilers ON 13ft, hdg 265 and 0kts
[19:15] - Spoilers OFF 13ft, hdg 263 and 0kts
[19:17] - Parking Brake Applied
[19:17] - Arrived safely at LIRF. We hope you enjoyed your flight!
[19:19] - FSLabs A320-X Alitalia
[19:19] - MaxSim Rate: 1x
[19:19] - ver 1.0.1.8

Route Map